Time;durP1;ratioP1;P1;durP2;ratioP2;P2;SDS_P1;SDS_P2;PMS_P1;PMS_P2;Temp;Humidity;BMP_temperature;BMP_pressure;BME280_temperature;BME280_humidity;BME280_pressure;Samples;Min_cycle;Max_cycle;Signal;HPM_P1;HPM_P2
2023/09/29 00:03:15;;;;;;;34.10;22.20;;;;;;;14.80;73.85;99171.39;436138;1254;108689;-42
2023/09/29 00:13:23;;;;;;;39.50;24.00;;;;;;;14.58;74.21;99170.30;436051;1248;97850;-43
2023/09/29 00:23:26;;;;;;;39.40;25.70;;;;;;;14.43;74.48;99168.66;436066;1254;108531;-43
2023/09/29 00:43:35;;;;;;;46.00;26.70;;;;;;;14.31;75.47;99168.81;435577;1253;720090;-42
2023/09/29 00:53:39;;;;;;;46.60;28.00;;;;;;;14.25;75.85;99168.84;436003;1252;108599;-42
2023/09/29 01:03:43;;;;;;;37.20;25.10;;;;;;;14.08;76.26;99169.86;436053;1261;97875;-42
2023/09/29 01:23:50;;;;;;;34.30;23.20;;;;;;;13.88;77.04;99175.17;436030;1253;108546;-42
2023/09/29 01:54:05;;;;;;;34.10;22.70;;;;;;;13.60;78.41;99163.91;436243;1253;98046;-42
2023/09/29 02:04:13;;;;;;;33.30;23.20;;;;;;;13.50;78.59;99161.29;437335;1251;110281;-43
2023/09/29 02:24:19;;;;;;;41.20;23.40;;;;;;;13.40;79.26;99163.89;436440;1251;96968;-42
2023/09/29 02:34:23;;;;;;;35.20;22.40;;;;;;;13.35;79.57;99155.39;436548;1250;107014;-42
2023/09/29 02:44:30;;;;;;;35.40;21.50;;;;;;;13.32;79.72;99147.52;436444;1251;97897;-42
2023/09/29 02:54:35;;;;;;;34.60;22.10;;;;;;;13.27;79.84;99147.77;436726;1253;110072;-41
2023/09/29 03:14:46;;;;;;;39.30;24.50;;;;;;;13.04;80.23;99129.02;436464;1247;98050;-42
2023/09/29 03:24:50;;;;;;;33.80;21.90;;;;;;;12.95;80.27;99128.43;436390;1248;108627;-43
2023/09/29 03:34:53;;;;;;;29.40;20.80;;;;;;;12.89;80.26;99125.17;436328;1251;96916;-42
2023/09/29 03:44:58;;;;;;;26.60;19.90;;;;;;;12.84;80.39;99128.41;436367;1251;110918;-43
2023/09/29 03:55:01;;;;;;;36.00;19.90;;;;;;;12.80;80.38;99121.06;436487;1251;107315;-42
2023/09/29 04:05:04;;;;;;;25.90;18.70;;;;;;;12.78;80.59;99113.26;436396;1250;97972;-42
2023/09/29 04:15:09;;;;;;;27.40;17.50;;;;;;;12.78;80.68;99109.77;436367;1251;108505;-42
2023/09/29 04:25:13;;;;;;;28.60;18.90;;;;;;;12.84;80.85;99106.40;436513;1251;97870;-43
2023/09/29 04:35:21;;;;;;;33.60;21.60;;;;;;;12.97;80.88;99108.73;436432;1251;110630;-42
2023/09/29 04:45:28;;;;;;;49.40;26.50;;;;;;;12.91;80.83;99108.87;436396;1247;109173;-42
2023/09/29 04:55:31;;;;;;;36.20;22.90;;;;;;;12.85;81.05;99108.86;436450;1247;97782;-42
2023/09/29 05:05:34;;;;;;;30.20;21.40;;;;;;;12.93;81.24;99107.10;436352;1247;107737;-41
2023/09/29 05:15:38;;;;;;;32.90;21.40;;;;;;;13.07;81.29;99109.38;436446;1251;97867;-43
2023/09/29 05:25:44;;;;;;;33.80;20.10;;;;;;;13.34;81.56;99115.95;436419;1251;110473;-42
2023/09/29 05:35:47;;;;;;;33.10;21.20;;;;;;;13.81;81.24;99115.37;436235;1253;107158;-42
2023/09/29 05:45:50;;;;;;;45.90;19.40;;;;;;;14.03;81.37;99116.68;436680;1247;97890;-43
2023/09/29 05:55:53;;;;;;;36.50;18.70;;;;;;;15.08;81.47;99122.02;436274;1251;106886;-43
2023/09/29 06:05:57;;;;;;;34.00;18.80;;;;;;;15.99;80.34;99125.28;436419;1247;96738;-44
2023/09/29 06:16:03;;;;;;;19.00;16.40;;;;;;;16.80;79.40;99125.70;436405;1248;110006;-42
2023/09/29 06:36:19;;;;;;;27.70;16.30;;;;;;;18.54;76.46;99137.20;436461;1251;97877;-42
2023/09/29 06:46:23;;;;;;;28.80;17.00;;;;;;;18.46;74.54;99135.54;436579;1251;110351;-43
2023/09/29 06:56:26;;;;;;;18.00;13.20;;;;;;;18.07;73.63;99142.06;436577;1251;97757;-42
2023/09/29 07:06:30;;;;;;;29.90;16.20;;;;;;;18.11;73.48;99148.74;436484;1247;97543;-42
2023/09/29 07:16:33;;;;;;;22.70;13.30;;;;;;;18.23;72.92;99148.38;436353;1251;109665;-42
2023/09/29 07:26:41;;;;;;;23.40;13.00;;;;;;;18.78;72.91;99150.80;436313;1251;108088;-43
2023/09/29 07:57:10;;;;;;;15.50;11.30;;;;;;;21.05;69.72;99146.85;436602;1251;96664;-43
2023/09/29 08:27:20;;;;;;;17.30;9.10;;;;;;;23.14;64.72;99148.54;436392;1247;107803;-41
2023/09/29 08:37:24;;;;;;;13.90;8.20;;;;;;;23.62;63.06;99153.90;436464;1247;96663;-40
2023/09/29 08:47:35;;;;;;;11.10;7.10;;;;;;;23.94;60.81;99158.92;436374;1251;107911;-41
2023/09/29 09:07:50;;;;;;;13.30;6.00;;;;;;;24.61;58.13;99151.23;436617;1251;109268;-42
2023/09/29 09:17:56;;;;;;;11.50;6.50;;;;;;;24.97;56.50;99141.98;436460;1251;98646;-42
2023/09/29 09:38:04;;;;;;;12.50;7.10;;;;;;;25.29;54.87;99144.15;436526;1251;110715;-42
2023/09/29 09:48:09;;;;;;;11.10;6.20;;;;;;;25.35;53.41;99143.48;436307;1252;97847;-41
2023/09/29 09:58:17;;;;;;;19.90;7.10;;;;;;;25.49;52.47;99134.68;436520;1253;97739;-51
2023/09/29 10:18:32;;;;;;;15.90;6.10;;;;;;;25.70;49.52;99121.91;436547;1251;108838;-42
2023/09/29 10:38:43;;;;;;;16.80;7.10;;;;;;;26.07;49.34;99118.23;436554;1253;110737;-42
2023/09/29 10:48:47;;;;;;;9.10;5.60;;;;;;;26.04;48.56;99115.01;436612;1247;107816;-41
2023/09/29 11:08:57;;;;;;;12.50;6.60;;;;;;;26.03;47.63;99096.20;436403;1253;97850;-41
2023/09/29 11:19:06;;;;;;;8.80;5.80;;;;;;;26.03;46.69;99087.02;436469;1247;107227;-40
2023/09/29 11:29:19;;;;;;;6.60;5.50;;;;;;;25.93;46.33;99072.80;436560;1248;97871;-41
2023/09/29 11:39:23;;;;;;;13.90;5.40;;;;;;;25.76;45.86;99071.25;436344;1252;109470;-39
2023/09/29 11:49:27;;;;;;;14.70;6.40;;;;;;;25.60;45.19;99062.77;436496;1253;97926;-41
2023/09/29 11:59:29;;;;;;;15.80;5.90;;;;;;;25.38;44.78;99045.47;436506;1253;110413;-43
2023/09/29 12:09:33;;;;;;;8.00;5.60;;;;;;;25.28;43.71;99034.88;436355;1251;110658;-42
2023/09/29 12:19:37;;;;;;;10.70;5.50;;;;;;;25.19;44.24;99023.08;436497;1253;96653;-42
2023/09/29 12:29:40;;;;;;;10.50;5.50;;;;;;;25.01;43.85;99010.66;436471;1253;97919;-42
2023/09/29 12:39:45;;;;;;;11.50;5.80;;;;;;;24.94;44.01;99009.57;436025;1247;447341;-43
2023/09/29 12:49:51;;;;;;;10.50;5.80;;;;;;;24.89;43.07;98999.70;436620;1247;97718;-42
2023/09/29 12:59:55;;;;;;;10.80;5.80;;;;;;;24.91;43.35;98996.23;436391;1248;113018;-43
2023/09/29 13:09:58;;;;;;;12.70;5.70;;;;;;;24.90;42.88;98986.75;436457;1253;97254;-41
2023/09/29 13:20:10;;;;;;;7.50;5.10;;;;;;;24.85;43.24;98985.97;436536;1248;96658;-41
2023/09/29 13:30:14;;;;;;;13.40;6.10;;;;;;;24.82;43.08;98975.81;436626;1247;109278;-42
2023/09/29 13:40:22;;;;;;;15.80;6.70;;;;;;;24.70;43.64;98969.64;437038;1250;98435;-42
2023/09/29 13:50:25;;;;;;;6.90;5.10;;;;;;;24.62;43.84;98958.65;436297;1250;96648;-42
2023/09/29 14:00:28;;;;;;;12.70;6.50;;;;;;;24.59;44.58;98955.01;436440;1252;110588;-41
2023/09/29 14:20:40;;;;;;;16.70;4.80;;;;;;;24.50;44.43;98947.63;436480;1253;98396;-42
2023/09/29 14:30:43;;;;;;;15.80;5.70;;;;;;;24.47;44.38;98945.89;436225;1253;97801;-41
2023/09/29 14:40:50;;;;;;;6.50;5.60;;;;;;;24.31;44.13;98941.13;436423;1247;107618;-42
2023/09/29 15:01:00;;;;;;;11.70;4.80;;;;;;;24.03;43.83;98938.73;436429;1247;110862;-43
2023/09/29 15:21:07;;;;;;;15.50;5.40;;;;;;;23.67;44.37;98929.73;436394;1253;97882;-41
2023/09/29 15:31:11;;;;;;;17.30;6.00;;;;;;;23.40;44.88;98928.35;436418;1253;97919;-42
2023/09/29 15:41:14;;;;;;;14.10;6.50;;;;;;;23.03;45.76;98938.80;436276;1253;108814;-41
2023/09/29 15:51:18;;;;;;;12.80;6.00;;;;;;;22.55;46.61;98934.89;436341;1248;97596;-42
2023/09/29 16:01:22;;;;;;;16.00;7.00;;;;;;;22.06;47.54;98933.60;436458;1253;107870;-41
2023/09/29 16:11:30;;;;;;;15.30;8.50;;;;;;;21.65;48.53;98944.00;436211;1261;97928;-42
2023/09/29 16:21:34;;;;;;;18.20;9.50;;;;;;;21.15;49.42;98951.52;436256;1254;109861;-41
2023/09/29 16:31:38;;;;;;;19.60;9.00;;;;;;;20.63;50.33;98953.53;436424;1252;108005;-40
2023/09/29 16:41:41;;;;;;;17.80;8.10;;;;;;;20.18;51.26;98956.85;436264;1253;96953;-43
2023/09/29 16:51:45;;;;;;;22.60;9.80;;;;;;;19.84;52.07;98956.06;436458;1253;96597;-42
2023/09/29 17:01:53;;;;;;;24.70;12.20;;;;;;;19.52;52.79;98954.64;436233;1249;108449;-41
2023/09/29 17:11:56;;;;;;;26.00;15.40;;;;;;;19.18;53.56;98946.13;436368;1253;97874;-41
2023/09/29 17:22:00;;;;;;;25.40;14.50;;;;;;;18.73;54.32;98942.33;436248;1254;108194;-41
2023/09/29 17:32:08;;;;;;;39.30;23.50;;;;;;;18.47;54.97;98939.84;436546;1247;96606;-41
2023/09/29 17:42:11;;;;;;;45.40;26.60;;;;;;;18.34;55.50;98938.02;436185;1261;110429;-42
2023/09/29 17:52:15;;;;;;;86.80;51.00;;;;;;;18.23;55.88;98941.17;436178;1252;97871;-40
2023/09/29 18:12:26;;;;;;;29.30;14.60;;;;;;;18.01;56.93;98938.95;436271;1254;110902;-41
2023/09/29 18:22:34;;;;;;;22.30;13.80;;;;;;;17.86;57.49;98943.42;436239;1248;107216;-41
2023/09/29 18:42:42;;;;;;;25.20;12.80;;;;;;;17.45;58.23;98949.11;436376;1261;107894;-42
2023/09/29 19:02:51;;;;;;;20.40;11.40;;;;;;;17.38;58.87;98944.62;436288;1248;110100;-42
2023/09/29 19:12:55;;;;;;;20.50;12.60;;;;;;;17.30;59.21;98942.46;436257;1248;107300;-42
2023/09/29 19:22:58;;;;;;;19.70;11.30;;;;;;;17.16;59.18;98930.59;436432;1248;97910;-41
2023/09/29 19:33:03;;;;;;;22.00;13.80;;;;;;;17.08;59.48;98928.08;436398;1253;97877;-43
2023/09/29 19:43:07;;;;;;;14.10;10.90;;;;;;;17.00;59.66;98923.55;436291;1248;107637;-42
2023/09/29 19:53:10;;;;;;;13.50;11.20;;;;;;;16.91;59.89;98926.74;436362;1252;97874;-41
2023/09/29 20:33:24;;;;;;;16.80;11.70;;;;;;;16.77;60.55;98922.11;436371;1248;106724;-41
2023/09/29 20:43:28;;;;;;;19.70;11.90;;;;;;;16.67;60.75;98920.67;436266;1253;97874;-42
2023/09/29 20:53:32;;;;;;;21.70;11.90;;;;;;;16.56;60.88;98921.95;436146;1253;97876;-42
2023/09/29 21:03:36;;;;;;;20.20;11.60;;;;;;;16.42;61.18;98924.08;436221;1248;108253;-42
2023/09/29 21:13:41;;;;;;;17.50;9.60;;;;;;;16.34;61.35;98912.47;436366;1252;96660;-41
2023/09/29 21:23:44;;;;;;;14.60;9.30;;;;;;;16.34;61.71;98909.27;436292;1261;108208;-41
2023/09/29 21:33:48;;;;;;;21.70;11.00;;;;;;;16.28;62.03;98904.42;436229;1261;98320;-41
2023/09/29 21:43:54;;;;;;;14.70;10.30;;;;;;;16.21;62.39;98906.36;436237;1252;110571;-41
2023/09/29 21:53:57;;;;;;;14.50;10.10;;;;;;;16.16;62.62;98904.70;436366;1248;108543;-41
2023/09/29 22:04:02;;;;;;;18.80;11.10;;;;;;;16.08;62.66;98893.98;436262;1247;97570;-41
2023/09/29 22:14:07;;;;;;;16.70;11.00;;;;;;;16.05;63.11;98882.80;436422;1249;108597;-41
2023/09/29 22:34:39;;;;;;;18.50;11.60;;;;;;;16.07;63.71;98872.99;436273;1248;110146;-42
2023/09/29 22:44:42;;;;;;;18.60;11.10;;;;;;;16.08;64.04;98869.70;436461;1247;108543;-41
2023/09/29 22:54:45;;;;;;;20.70;10.10;;;;;;;16.12;63.88;98865.30;436339;1253;96713;-44
2023/09/29 23:04:48;;;;;;;21.80;11.10;;;;;;;16.13;64.22;98862.74;436490;1247;109703;-42
2023/09/29 23:14:52;;;;;;;17.10;11.90;;;;;;;16.06;64.47;98860.88;436347;1248;109193;-42
2023/09/29 23:35:03;;;;;;;20.20;10.80;;;;;;;15.92;64.88;98860.93;436324;1251;109597;-41
2023/09/29 23:55:12;;;;;;;15.50;11.70;;;;;;;15.88;65.62;98857.77;436474;1253;97875;-42
